createdAt,value
2023-05-16T00:01:39.692Z,11.90
2023-05-16T00:04:07.815Z,11.90
2023-05-16T00:06:36.246Z,11.90
2023-05-16T00:09:03.906Z,11.80
2023-05-16T00:11:31.178Z,11.80
2023-05-16T00:13:59.101Z,11.80
2023-05-16T00:16:26.379Z,11.80
2023-05-16T00:18:54.080Z,11.80
2023-05-16T00:21:23.728Z,11.70
2023-05-16T00:23:52.790Z,11.70
2023-05-16T00:26:20.937Z,11.70
2023-05-16T00:28:48.218Z,11.50
2023-05-16T00:31:15.740Z,11.50
2023-05-16T00:33:43.181Z,11.40
2023-05-16T00:36:10.443Z,11.20
2023-05-16T00:38:37.819Z,11.20
2023-05-16T00:41:05.230Z,11.20
2023-05-16T00:43:32.578Z,11.20
2023-05-16T00:46:01.333Z,11.10
2023-05-16T00:48:28.934Z,11.20
2023-05-16T00:50:56.421Z,11.30
2023-05-16T00:53:24.897Z,11.30
2023-05-16T00:55:52.992Z,11.60
2023-05-16T00:58:23.022Z,11.90
2023-05-16T01:00:50.725Z,12.00
2023-05-16T01:03:18.638Z,12.20
2023-05-16T01:05:47.277Z,12.10
2023-05-16T01:08:14.627Z,12.10
2023-05-16T01:11:08.371Z,12.00
2023-05-16T01:13:51.300Z,12.00
2023-05-16T01:16:40.618Z,12.00
2023-05-16T01:19:30.103Z,12.00
2023-05-16T01:22:13.953Z,11.90
2023-05-16T01:24:56.171Z,12.00
2023-05-16T01:27:24.796Z,12.10
2023-05-16T01:29:56.878Z,12.20
2023-05-16T01:32:24.968Z,12.30
2023-05-16T01:34:52.651Z,12.30
2023-05-16T01:37:25.384Z,12.40
2023-05-16T01:39:58.118Z,12.40
2023-05-16T01:42:28.073Z,12.30
2023-05-16T01:44:59.076Z,12.30
2023-05-16T01:47:29.226Z,12.20
2023-05-16T01:50:01.092Z,12.20
2023-05-16T01:52:35.212Z,12.20
2023-05-16T01:55:03.861Z,12.20
2023-05-16T01:57:32.147Z,12.20
2023-05-16T01:59:59.833Z,11.90
2023-05-16T02:02:27.324Z,11.80
2023-05-16T02:04:54.745Z,11.80
2023-05-16T02:07:22.157Z,11.60
2023-05-16T02:09:50.125Z,11.70
2023-05-16T02:12:17.624Z,11.60
2023-05-16T02:14:44.971Z,11.60
2023-05-16T02:17:12.333Z,11.50
2023-05-16T02:19:39.682Z,11.50
2023-05-16T02:22:06.997Z,11.40
2023-05-16T02:24:34.620Z,11.40
2023-05-16T02:27:02.783Z,11.40
2023-05-16T02:29:30.192Z,11.40
2023-05-16T02:31:57.535Z,11.30
2023-05-16T02:34:24.825Z,11.30
2023-05-16T02:36:52.305Z,11.30
2023-05-16T02:39:19.654Z,11.20
2023-05-16T02:41:46.862Z,11.10
2023-05-16T02:44:14.162Z,11.20
2023-05-16T02:46:41.736Z,11.10
2023-05-16T02:49:09.207Z,11.10
2023-05-16T02:51:36.381Z,11.10
2023-05-16T02:54:03.862Z,11.00
2023-05-16T02:56:31.101Z,10.90
2023-05-16T02:58:58.269Z,10.80
2023-05-16T03:01:25.711Z,10.80
2023-05-16T03:03:53.636Z,10.80
2023-05-16T03:06:21.197Z,10.70
2023-05-16T03:08:48.480Z,10.50
2023-05-16T03:11:20.656Z,10.20
2023-05-16T03:13:48.607Z,10.00
2023-05-16T03:16:16.713Z,10.00
2023-05-16T03:18:44.105Z,10.10
2023-05-16T03:21:11.726Z,10.10
2023-05-16T03:23:38.956Z,10.10
2023-05-16T03:26:06.457Z,10.20
2023-05-16T03:28:34.126Z,10.30
2023-05-16T03:31:01.419Z,10.30
2023-05-16T03:33:28.845Z,10.30
2023-05-16T03:35:56.197Z,10.50
2023-05-16T03:38:23.393Z,10.50
2023-05-16T03:40:51.511Z,10.60
2023-05-16T03:43:18.756Z,10.70
2023-05-16T03:45:46.242Z,10.70
2023-05-16T03:48:13.715Z,10.50
2023-05-16T03:50:41.512Z,10.70
2023-05-16T03:53:10.067Z,10.70
2023-05-16T03:55:37.939Z,10.90
2023-05-16T03:58:05.353Z,10.80
2023-05-16T04:00:32.639Z,11.00
2023-05-16T04:02:59.957Z,11.20
2023-05-16T04:05:27.500Z,11.50
2023-05-16T04:07:55.423Z,11.40
2023-05-16T04:10:23.007Z,11.80
2023-05-16T04:12:50.409Z,12.00
2023-05-16T04:15:17.682Z,12.20
2023-05-16T04:17:44.940Z,12.30
2023-05-16T04:20:12.465Z,12.40
2023-05-16T04:22:39.731Z,12.60
2023-05-16T04:25:07.727Z,12.70
2023-05-16T04:27:35.045Z,13.00
2023-05-16T04:30:02.656Z,13.20
2023-05-16T04:32:30.342Z,13.60
2023-05-16T04:34:57.583Z,14.30
2023-05-16T04:37:24.889Z,15.70
2023-05-16T04:39:53.234Z,17.00
2023-05-16T04:42:20.925Z,17.70
2023-05-16T04:44:48.685Z,18.00
2023-05-16T04:47:15.936Z,18.20
2023-05-16T04:49:43.322Z,18.30
2023-05-16T04:52:10.957Z,18.50
2023-05-16T04:54:39.733Z,18.90
2023-05-16T04:57:07.092Z,18.80
2023-05-16T04:59:34.409Z,19.20
2023-05-16T05:02:01.749Z,19.40
2023-05-16T05:04:29.280Z,19.70
2023-05-16T05:06:56.610Z,19.20
2023-05-16T05:09:23.773Z,18.60
2023-05-16T05:11:51.308Z,17.40
2023-05-16T05:14:18.503Z,16.60
2023-05-16T05:16:45.688Z,16.10
2023-05-16T05:19:12.940Z,15.80
2023-05-16T05:21:40.341Z,15.70
2023-05-16T05:24:07.577Z,15.40
2023-05-16T05:26:35.163Z,14.80
2023-05-16T05:29:05.883Z,14.60
2023-05-16T05:31:35.207Z,14.30
2023-05-16T05:34:03.720Z,14.20
2023-05-16T05:36:31.606Z,13.90
2023-05-16T05:38:58.892Z,13.70
2023-05-16T05:41:27.096Z,13.80
2023-05-16T05:43:54.291Z,13.60
2023-05-16T05:46:21.879Z,13.70
2023-05-16T05:48:49.491Z,13.60
2023-05-16T05:51:18.082Z,13.70
2023-05-16T05:53:45.546Z,13.90
2023-05-16T05:56:12.902Z,14.00
2023-05-16T05:58:42.327Z,13.90
2023-05-16T06:01:12.138Z,14.00
2023-05-16T06:03:39.369Z,14.00
2023-05-16T06:06:07.772Z,13.90
2023-05-16T06:08:35.495Z,14.10
2023-05-16T06:11:02.712Z,14.30
2023-05-16T06:13:30.249Z,14.30
2023-05-16T06:15:57.569Z,14.40
2023-05-16T06:18:24.701Z,14.30
2023-05-16T06:20:53.345Z,14.50
2023-05-16T06:23:21.502Z,14.70
2023-05-16T06:25:48.983Z,14.80
2023-05-16T06:28:16.224Z,14.50
2023-05-16T06:30:43.386Z,14.70
2023-05-16T06:33:11.199Z,14.70
2023-05-16T06:35:39.854Z,15.00
2023-05-16T06:38:07.189Z,15.10
2023-05-16T06:40:34.725Z,15.20
2023-05-16T06:43:01.928Z,15.10
2023-05-16T06:45:29.711Z,15.00
2023-05-16T06:47:57.671Z,15.20
2023-05-16T06:50:25.265Z,15.30
2023-05-16T06:52:53.312Z,14.90
2023-05-16T06:55:20.850Z,14.60
2023-05-16T06:57:48.262Z,14.80
2023-05-16T07:00:16.286Z,15.00
2023-05-16T07:02:43.620Z,15.30
2023-05-16T07:05:11.105Z,15.50
2023-05-16T07:07:38.448Z,15.20
2023-05-16T07:10:06.735Z,15.30
2023-05-16T07:12:38.065Z,15.60
2023-05-16T07:15:06.251Z,15.50
2023-05-16T07:17:33.569Z,15.20
2023-05-16T07:20:03.607Z,15.60
2023-05-16T07:22:32.870Z,15.50
2023-05-16T07:25:01.551Z,15.40
2023-05-16T07:27:29.115Z,15.50
2023-05-16T07:29:56.472Z,15.30
2023-05-16T07:32:23.936Z,15.20
2023-05-16T07:34:51.494Z,15.00
2023-05-16T07:37:19.141Z,15.10
2023-05-16T07:39:51.719Z,15.00
2023-05-16T07:42:19.018Z,15.00
2023-05-16T07:44:47.206Z,15.10
2023-05-16T07:47:14.618Z,15.20
2023-05-16T07:49:42.174Z,15.40
2023-05-16T07:52:09.533Z,15.80
2023-05-16T07:54:38.322Z,15.70
2023-05-16T07:57:06.682Z,15.40
2023-05-16T07:59:34.182Z,15.30
2023-05-16T08:02:01.661Z,14.90
2023-05-16T08:04:29.148Z,14.70
2023-05-16T08:06:56.378Z,14.70
2023-05-16T08:09:23.674Z,14.80
2023-05-16T08:11:51.033Z,14.80
2023-05-16T08:14:18.975Z,14.90
2023-05-16T08:16:46.503Z,14.90
2023-05-16T08:19:14.003Z,14.90
2023-05-16T08:21:41.473Z,15.00
2023-05-16T08:24:08.788Z,15.00
2023-05-16T08:26:37.594Z,15.10
2023-05-16T08:29:05.114Z,15.00
2023-05-16T08:31:33.284Z,14.90
2023-05-16T08:34:02.140Z,14.90
2023-05-16T08:36:29.401Z,14.90
2023-05-16T08:38:56.724Z,15.10
2023-05-16T08:41:24.041Z,15.20
2023-05-16T08:43:52.459Z,15.20
2023-05-16T08:46:23.337Z,15.30
2023-05-16T08:48:55.226Z,15.50
2023-05-16T08:51:25.353Z,15.60
2023-05-16T08:54:13.730Z,15.90
2023-05-16T08:56:45.306Z,15.90
2023-05-16T08:59:12.740Z,16.10
2023-05-16T09:01:41.438Z,15.70
2023-05-16T09:04:10.792Z,15.20
2023-05-16T09:06:38.646Z,14.70
2023-05-16T09:09:08.345Z,14.60
2023-05-16T09:11:37.185Z,14.40
2023-05-16T09:14:05.872Z,14.80
2023-05-16T09:16:33.231Z,15.00
2023-05-16T09:19:02.118Z,15.10
2023-05-16T09:21:38.121Z,14.90
2023-05-16T09:24:06.471Z,14.80
2023-05-16T09:26:35.574Z,14.70
2023-05-16T09:29:03.093Z,14.50
2023-05-16T09:31:38.092Z,14.50
2023-05-16T09:34:09.534Z,14.40
2023-05-16T09:36:36.973Z,14.40
2023-05-16T09:39:06.063Z,14.60
2023-05-16T09:41:36.725Z,14.80
2023-05-16T09:44:06.296Z,14.70
2023-05-16T09:46:35.355Z,14.50
2023-05-16T09:49:03.155Z,14.60
2023-05-16T09:51:30.584Z,14.70
2023-05-16T09:53:59.067Z,14.40
2023-05-16T09:56:26.391Z,14.20
2023-05-16T09:58:53.917Z,14.20
2023-05-16T10:01:21.263Z,14.20
2023-05-16T10:03:48.713Z,14.00
2023-05-16T10:06:17.419Z,14.00
2023-05-16T10:08:45.935Z,14.20
2023-05-16T10:11:14.322Z,14.30
2023-05-16T10:13:41.838Z,14.10
2023-05-16T10:16:12.964Z,13.80
2023-05-16T10:18:41.548Z,13.80
2023-05-16T10:21:14.778Z,13.90
2023-05-16T10:23:43.703Z,13.70
2023-05-16T10:26:16.601Z,14.00
2023-05-16T10:28:44.486Z,14.20
2023-05-16T10:31:12.229Z,14.50
2023-05-16T10:33:40.468Z,14.80
2023-05-16T10:36:10.092Z,15.00
2023-05-16T10:38:38.313Z,15.10
2023-05-16T10:41:07.378Z,14.70
2023-05-16T10:43:34.882Z,14.60
2023-05-16T10:46:12.905Z,14.40
2023-05-16T10:48:41.370Z,14.30
2023-05-16T10:51:23.867Z,14.40
2023-05-16T10:53:54.936Z,14.50
2023-05-16T10:56:26.825Z,14.70
2023-05-16T10:58:56.270Z,14.50
2023-05-16T11:01:25.845Z,14.50
2023-05-16T11:04:00.770Z,14.40
2023-05-16T11:06:36.454Z,14.30
2023-05-16T11:09:04.738Z,14.10
2023-05-16T11:11:41.012Z,14.20
2023-05-16T11:14:09.781Z,14.10
2023-05-16T11:16:39.595Z,14.20
2023-05-16T11:19:08.593Z,14.40
2023-05-16T11:22:08.006Z,14.60
2023-05-16T11:24:38.240Z,14.30
2023-05-16T11:27:06.789Z,14.20
2023-05-16T11:29:37.757Z,14.50
2023-05-16T11:32:05.904Z,14.60
2023-05-16T11:34:37.947Z,14.70
2023-05-16T11:37:05.495Z,14.90
2023-05-16T11:39:32.847Z,14.70
2023-05-16T11:42:00.260Z,14.60
2023-05-16T11:44:27.512Z,14.50
2023-05-16T11:46:55.018Z,14.40
2023-05-16T11:49:23.103Z,14.60
2023-05-16T11:51:52.662Z,14.80
2023-05-16T11:54:20.010Z,14.70
2023-05-16T11:56:47.911Z,14.50
2023-05-16T11:59:15.898Z,14.50
2023-05-16T12:01:43.361Z,14.50
2023-05-16T12:04:15.009Z,14.50
2023-05-16T12:06:46.107Z,14.50
2023-05-16T12:09:17.608Z,14.60
2023-05-16T12:11:45.968Z,14.80
2023-05-16T12:14:14.560Z,14.80
2023-05-16T12:16:44.150Z,14.80
2023-05-16T12:19:12.163Z,14.90
2023-05-16T12:21:39.999Z,14.90
2023-05-16T12:24:12.094Z,14.90
2023-05-16T12:26:43.063Z,14.80
2023-05-16T12:29:11.912Z,14.50
2023-05-16T12:31:41.837Z,14.50
2023-05-16T12:34:17.467Z,14.50
2023-05-16T12:36:45.077Z,14.50
2023-05-16T12:39:14.181Z,14.50
2023-05-16T12:41:43.670Z,14.60
2023-05-16T12:44:17.889Z,14.70
2023-05-16T12:46:52.070Z,14.70
2023-05-16T12:49:23.202Z,14.80
2023-05-16T12:51:55.722Z,14.90
2023-05-16T12:54:23.331Z,14.70
2023-05-16T12:56:50.704Z,14.60
2023-05-16T12:59:19.740Z,14.70
2023-05-16T13:01:47.143Z,14.50
2023-05-16T13:04:18.616Z,14.30
2023-05-16T13:06:58.559Z,14.10
2023-05-16T13:09:31.112Z,14.10
2023-05-16T13:11:59.974Z,14.00
2023-05-16T13:14:27.395Z,14.00
2023-05-16T13:16:54.585Z,14.10
2023-05-16T13:19:23.468Z,14.10
2023-05-16T13:21:50.901Z,14.20
2023-05-16T13:24:18.186Z,14.40
2023-05-16T13:26:45.583Z,14.40
2023-05-16T13:29:13.450Z,14.40
2023-05-16T13:31:40.919Z,14.10
2023-05-16T13:34:08.250Z,14.00
2023-05-16T13:36:52.418Z,14.00
2023-05-16T13:39:20.929Z,14.10
2023-05-16T13:41:49.138Z,14.20
2023-05-16T13:44:17.230Z,14.30
2023-05-16T13:46:45.211Z,14.30
2023-05-16T13:49:12.472Z,14.20
2023-05-16T13:51:39.783Z,14.00
2023-05-16T13:54:07.083Z,14.00
2023-05-16T13:56:34.377Z,14.10
2023-05-16T13:59:06.490Z,14.20
2023-05-16T14:01:34.773Z,14.30
2023-05-16T14:04:02.896Z,14.40
2023-05-16T14:06:30.189Z,14.30
2023-05-16T14:08:57.459Z,14.20
2023-05-16T14:11:29.189Z,14.20
2023-05-16T14:13:58.206Z,14.10
2023-05-16T14:16:26.099Z,14.20
2023-05-16T14:18:53.653Z,14.40
2023-05-16T14:21:20.976Z,14.50
2023-05-16T14:23:48.873Z,14.80
2023-05-16T14:26:16.949Z,14.90
2023-05-16T14:28:44.784Z,15.10
2023-05-16T14:31:12.281Z,15.20
2023-05-16T14:33:41.270Z,15.30
2023-05-16T14:36:08.890Z,15.40
2023-05-16T14:38:36.453Z,15.60
2023-05-16T14:41:03.754Z,15.80
2023-05-16T14:43:31.344Z,15.90
2023-05-16T14:45:58.571Z,16.20
2023-05-16T14:48:26.203Z,16.30
2023-05-16T14:50:53.583Z,16.40
2023-05-16T14:53:21.852Z,16.90
2023-05-16T14:55:49.928Z,16.70
2023-05-16T14:58:17.278Z,16.90
2023-05-16T15:00:44.613Z,16.70
2023-05-16T15:03:13.179Z,15.90
2023-05-16T15:05:42.463Z,16.20
2023-05-16T15:08:09.748Z,16.60
2023-05-16T15:10:37.123Z,16.80
2023-05-16T15:13:05.086Z,16.80
2023-05-16T15:15:33.486Z,16.50
2023-05-16T15:18:00.784Z,15.90
2023-05-16T15:20:28.587Z,16.30
2023-05-16T15:22:56.256Z,16.70
2023-05-16T15:25:23.666Z,16.90
2023-05-16T15:27:51.348Z,16.80
2023-05-16T15:30:18.706Z,17.10
2023-05-16T15:32:46.197Z,17.30
2023-05-16T15:35:13.589Z,17.00
2023-05-16T15:37:40.996Z,17.00
2023-05-16T15:40:09.887Z,16.80
2023-05-16T15:42:37.136Z,17.10
2023-05-16T15:45:04.740Z,17.30
2023-05-16T15:47:32.469Z,17.20
2023-05-16T15:49:59.877Z,16.40
2023-05-16T15:52:27.135Z,16.90
2023-05-16T15:54:54.538Z,17.20
2023-05-16T15:57:21.795Z,17.60
2023-05-16T15:59:49.023Z,17.60
2023-05-16T16:02:16.424Z,17.60
2023-05-16T16:04:43.953Z,17.60
2023-05-16T16:07:11.743Z,17.70
2023-05-16T16:09:39.059Z,17.50
2023-05-16T16:12:06.748Z,17.10
2023-05-16T16:14:34.902Z,17.20
2023-05-16T16:17:02.074Z,17.10
2023-05-16T16:19:29.554Z,16.30
2023-05-16T16:21:56.817Z,16.50
2023-05-16T16:24:24.043Z,16.30
2023-05-16T16:26:51.366Z,16.40
2023-05-16T16:29:18.632Z,16.30
2023-05-16T16:31:46.089Z,16.50
2023-05-16T16:34:13.335Z,16.60
2023-05-16T16:36:41.313Z,16.10
2023-05-16T16:39:08.477Z,15.90
2023-05-16T16:41:35.758Z,15.50
2023-05-16T16:44:03.064Z,15.30
2023-05-16T16:46:30.323Z,15.30
2023-05-16T16:48:57.533Z,15.20
2023-05-16T16:51:24.821Z,15.10
2023-05-16T16:53:53.103Z,14.90
2023-05-16T16:56:22.379Z,14.90
2023-05-16T16:58:50.165Z,15.00
2023-05-16T17:01:18.619Z,14.90
2023-05-16T17:03:46.644Z,14.90
2023-05-16T17:06:13.910Z,14.80
2023-05-16T17:08:41.250Z,14.90
2023-05-16T17:11:08.632Z,14.80
2023-05-16T17:13:37.836Z,14.80
2023-05-16T17:16:06.014Z,14.80
2023-05-16T17:18:34.665Z,14.70
2023-05-16T17:21:02.219Z,14.70
2023-05-16T17:23:29.564Z,14.70
2023-05-16T17:25:57.112Z,14.50
2023-05-16T17:28:25.049Z,14.70
2023-05-16T17:30:55.310Z,14.70
2023-05-16T17:33:22.603Z,14.50
2023-05-16T17:35:50.457Z,14.30
2023-05-16T17:38:17.872Z,14.30
2023-05-16T17:40:45.074Z,14.10
2023-05-16T17:43:12.278Z,14.00
2023-05-16T17:45:39.802Z,13.80
2023-05-16T17:48:07.347Z,13.70
2023-05-16T17:50:35.600Z,13.60
2023-05-16T17:53:02.872Z,13.60
2023-05-16T17:55:30.383Z,13.60
2023-05-16T17:57:58.418Z,13.50
2023-05-16T18:00:25.987Z,13.40
2023-05-16T18:02:53.673Z,13.40
2023-05-16T18:05:21.568Z,13.30
2023-05-16T18:07:48.804Z,13.40
2023-05-16T18:10:16.132Z,13.30
2023-05-16T18:12:43.897Z,13.10
2023-05-16T18:15:11.567Z,12.90
2023-05-16T18:17:39.218Z,12.80
2023-05-16T18:20:11.055Z,12.70
2023-05-16T18:22:39.232Z,12.70
2023-05-16T18:25:09.672Z,12.60
2023-05-16T18:27:37.914Z,12.50
2023-05-16T18:30:06.669Z,12.30
2023-05-16T18:32:35.087Z,12.30
2023-05-16T18:35:02.675Z,12.30
2023-05-16T18:37:29.931Z,12.20
2023-05-16T18:39:57.166Z,12.20
2023-05-16T18:42:25.952Z,12.20
2023-05-16T18:44:53.362Z,12.20
2023-05-16T18:47:21.469Z,12.20
2023-05-16T18:49:48.968Z,12.20
2023-05-16T18:52:16.274Z,12.30
2023-05-16T18:54:43.587Z,12.30
2023-05-16T18:57:11.891Z,12.20
2023-05-16T18:59:39.140Z,12.20
2023-05-16T19:02:06.571Z,12.10
2023-05-16T19:04:34.096Z,12.10
2023-05-16T19:07:03.825Z,12.10
2023-05-16T19:09:32.638Z,12.00
2023-05-16T19:11:59.872Z,12.10
2023-05-16T19:14:28.157Z,11.90
2023-05-16T19:16:55.487Z,11.80
2023-05-16T19:19:23.137Z,11.80
2023-05-16T19:21:50.739Z,11.70
2023-05-16T19:24:18.218Z,11.80
2023-05-16T19:26:45.508Z,11.90
2023-05-16T19:29:12.799Z,11.90
2023-05-16T19:31:40.135Z,11.90
2023-05-16T19:34:08.676Z,11.90
2023-05-16T19:36:36.681Z,11.90
2023-05-16T19:39:03.976Z,11.90
2023-05-16T19:41:31.382Z,11.70
2023-05-16T19:43:58.718Z,11.70
2023-05-16T19:46:26.006Z,11.70
2023-05-16T19:48:53.420Z,11.50
2023-05-16T19:51:33.220Z,11.50
2023-05-16T19:54:07.732Z,11.40
2023-05-16T19:56:35.114Z,11.40
2023-05-16T19:59:02.485Z,11.40
2023-05-16T20:01:29.825Z,11.20
2023-05-16T20:03:57.160Z,11.20
2023-05-16T20:06:24.494Z,11.20
2023-05-16T20:08:51.886Z,11.20
2023-05-16T20:11:19.102Z,11.10
2023-05-16T20:13:46.481Z,11.00
2023-05-16T20:16:14.282Z,10.90
2023-05-16T20:18:41.838Z,11.00
2023-05-16T20:21:09.268Z,11.00
2023-05-16T20:23:38.567Z,10.90
2023-05-16T20:26:06.127Z,11.00
2023-05-16T20:28:33.369Z,10.90
2023-05-16T20:31:00.997Z,11.00
2023-05-16T20:33:28.422Z,10.90
2023-05-16T20:35:55.857Z,10.90
2023-05-16T20:38:23.156Z,10.90
2023-05-16T20:40:50.402Z,11.00
2023-05-16T20:43:17.715Z,11.00
2023-05-16T20:45:44.970Z,10.90
2023-05-16T20:48:14.230Z,10.80
2023-05-16T20:50:41.872Z,10.60
2023-05-16T20:53:09.486Z,10.40
2023-05-16T20:55:36.945Z,10.20
2023-05-16T20:58:04.186Z,10.10
2023-05-16T21:00:31.562Z,10.00
2023-05-16T21:02:58.778Z,9.80
2023-05-16T21:05:26.350Z,9.70
2023-05-16T21:07:53.755Z,9.50
2023-05-16T21:10:21.131Z,9.30
2023-05-16T21:12:48.411Z,9.10
2023-05-16T21:15:15.730Z,9.20
2023-05-16T21:17:43.914Z,9.30
2023-05-16T21:20:11.669Z,9.40
2023-05-16T21:22:39.080Z,9.30
2023-05-16T21:25:06.715Z,9.20
2023-05-16T21:27:33.907Z,9.30
2023-05-16T21:30:01.123Z,9.30
2023-05-16T21:32:32.325Z,9.30
2023-05-16T21:35:04.566Z,9.40
2023-05-16T21:37:32.741Z,9.40
2023-05-16T21:40:00.320Z,9.40
2023-05-16T21:42:27.653Z,9.50
2023-05-16T21:44:55.106Z,9.60
2023-05-16T21:47:26.366Z,9.70
2023-05-16T21:49:53.730Z,9.70
2023-05-16T21:52:21.247Z,9.70
2023-05-16T21:54:52.085Z,9.60
2023-05-16T21:57:19.894Z,9.50
2023-05-16T21:59:50.409Z,9.50
2023-05-16T22:02:22.977Z,9.50
2023-05-16T22:04:52.430Z,9.50
2023-05-16T22:07:20.197Z,9.40
2023-05-16T22:09:51.084Z,9.50
2023-05-16T22:12:18.367Z,9.30
2023-05-16T22:14:45.891Z,9.30
2023-05-16T22:17:13.077Z,9.20
2023-05-16T22:19:40.773Z,9.00
2023-05-16T22:22:08.819Z,9.10
2023-05-16T22:24:36.001Z,9.10
2023-05-16T22:27:03.373Z,9.10
2023-05-16T22:29:31.419Z,9.10
2023-05-16T22:31:58.698Z,9.00
2023-05-16T22:34:25.871Z,9.00
2023-05-16T22:36:53.308Z,9.00
2023-05-16T22:39:20.946Z,9.00
2023-05-16T22:41:48.272Z,8.80
2023-05-16T22:44:15.459Z,8.90
2023-05-16T22:46:42.938Z,8.80
2023-05-16T22:49:10.196Z,8.80
2023-05-16T22:51:37.546Z,8.70
2023-05-16T22:54:05.123Z,8.60
2023-05-16T22:56:32.935Z,8.60
2023-05-16T22:59:00.124Z,8.60
2023-05-16T23:01:27.482Z,8.70
2023-05-16T23:03:54.958Z,8.60
2023-05-16T23:06:22.296Z,8.50
2023-05-16T23:08:49.646Z,8.40
2023-05-16T23:11:16.992Z,8.40
2023-05-16T23:13:44.165Z,8.40
2023-05-16T23:16:11.702Z,8.50
2023-05-16T23:18:39.137Z,8.50
2023-05-16T23:21:06.651Z,8.40
2023-05-16T23:23:33.916Z,8.50
2023-05-16T23:26:01.175Z,8.40
2023-05-16T23:28:28.352Z,8.30
2023-05-16T23:30:55.937Z,8.30
2023-05-16T23:33:23.198Z,8.20
2023-05-16T23:35:50.559Z,8.20
2023-05-16T23:38:17.791Z,8.10
2023-05-16T23:40:45.010Z,8.10
2023-05-16T23:43:12.406Z,8.10
2023-05-16T23:45:39.762Z,8.00
2023-05-16T23:48:07.168Z,8.00
2023-05-16T23:50:34.753Z,8.00
2023-05-16T23:53:02.194Z,7.90
2023-05-16T23:55:29.631Z,8.00
2023-05-16T23:57:57.042Z,8.00
